Time;durP1;ratioP1;P1;durP2;ratioP2;P2;SDS_P1;SDS_P2;PMS_P1;PMS_P2;Temp;Humidity;BMP_temperature;BMP_pressure;BME280_temperature;BME280_humidity;BME280_pressure;Samples;Min_cycle;Max_cycle;Signal;HPM_P1;HPM_P2
2021/09/04 00:01:42;;;;;;;;;;;14.90;99.90;;;;;;5054735;28;19971;-75
2021/09/04 00:04:07;;;;;;;;;;;14.90;99.90;;;;;;5056579;28;19924;-74
2021/09/04 00:06:33;;;;;;;;;;;14.90;99.90;;;;;;5061661;28;19920;-76
2021/09/04 00:09:00;;;;;;;;;;;14.90;99.90;;;;;;5056894;28;19920;-75
2021/09/04 00:11:25;;;;;;;;;;;14.90;99.90;;;;;;5086391;28;20625;-74
2021/09/04 00:13:51;;;;;;;;;;;14.90;99.90;;;;;;5057306;28;19916;-75
2021/09/04 00:16:16;;;;;;;;;;;14.90;99.90;;;;;;5069664;28;20424;-75
2021/09/04 00:18:42;;;;;;;;;;;14.90;99.90;;;;;;5055778;28;19960;-75
2021/09/04 00:21:07;;;;;;;;;;;14.90;99.90;;;;;;5069215;28;19986;-75
2021/09/04 00:23:33;;;;;;;;;;;14.90;99.90;;;;;;5054075;28;19916;-74
2021/09/04 00:25:59;;;;;;;;;;;14.90;99.90;;;;;;5061007;28;19920;-75
2021/09/04 00:28:24;;;;;;;;;;;14.90;99.90;;;;;;5054388;28;19916;-74
2021/09/04 00:30:50;;;;;;;;;;;14.90;99.90;;;;;;5068557;28;20297;-76
2021/09/04 00:33:15;;;;;;;;;;;14.90;99.90;;;;;;5062072;28;19962;-74
2021/09/04 00:35:41;;;;;;;;;;;14.90;99.90;;;;;;5056984;28;19995;-75
2021/09/04 00:38:06;;;;;;;;;;;14.90;99.90;;;;;;5084157;28;19920;-75
2021/09/04 00:40:32;;;;;;;;;;;14.80;99.90;;;;;;5068091;28;19916;-76
2021/09/04 00:42:58;;;;;;;;;;;14.80;99.90;;;;;;5068277;28;19921;-75
2021/09/04 00:45:23;;;;;;;;;;;14.80;99.90;;;;;;5068084;28;19916;-76
2021/09/04 00:47:57;;;;;;;;;;;14.80;99.90;;;;;;5098483;28;20277;-75
2021/09/04 00:50:22;;;;;;;;;;;14.80;99.90;;;;;;5086081;28;19916;-76
2021/09/04 00:52:48;;;;;;;;;;;14.80;99.90;;;;;;5068150;28;19924;-75
2021/09/04 00:55:14;;;;;;;;;;;14.70;99.90;;;;;;5068738;28;20014;-76
2021/09/04 00:57:39;;;;;;;;;;;14.70;99.90;;;;;;5060668;28;19921;-76
2021/09/04 01:00:05;;;;;;;;;;;14.70;99.90;;;;;;5068148;28;20403;-75
2021/09/04 01:02:31;;;;;;;;;;;14.70;99.90;;;;;;5067176;28;19921;-75
2021/09/04 01:04:56;;;;;;;;;;;14.70;99.90;;;;;;5056358;28;20003;-75
2021/09/04 01:07:22;;;;;;;;;;;14.70;99.90;;;;;;5059104;28;19969;-74
2021/09/04 01:09:48;;;;;;;;;;;14.80;99.90;;;;;;5084740;28;19917;-76
2021/09/04 01:12:13;;;;;;;;;;;14.70;99.90;;;;;;5060264;28;19926;-76
2021/09/04 01:14:39;;;;;;;;;;;14.70;99.90;;;;;;5068830;28;19956;-74
2021/09/04 01:17:05;;;;;;;;;;;14.70;99.90;;;;;;5056540;28;19916;-74
2021/09/04 01:19:31;;;;;;;;;;;14.70;99.90;;;;;;5067928;28;19917;-75
2021/09/04 01:21:57;;;;;;;;;;;14.70;99.90;;;;;;5059075;28;19963;-75
2021/09/04 01:24:23;;;;;;;;;;;14.70;99.90;;;;;;5084977;28;19960;-75
2021/09/04 01:26:49;;;;;;;;;;;14.70;99.90;;;;;;5059608;28;19916;-74
2021/09/04 01:29:14;;;;;;;;;;;14.70;99.90;;;;;;5054093;28;19943;-76
2021/09/04 01:31:40;;;;;;;;;;;14.70;99.90;;;;;;5057452;28;19916;-76
2021/09/04 01:34:06;;;;;;;;;;;14.60;99.90;;;;;;5052860;28;19968;-75
2021/09/04 01:36:35;;;;;;;;;;;14.70;99.90;;;;;;5056370;28;19924;-75
2021/09/04 01:39:02;;;;;;;;;;;14.70;99.90;;;;;;5053764;28;19916;-75
2021/09/04 01:41:28;;;;;;;;;;;14.70;99.90;;;;;;5056763;28;19917;-75
2021/09/04 01:43:54;;;;;;;;;;;14.70;99.90;;;;;;5054221;28;20351;-75
2021/09/04 01:46:19;;;;;;;;;;;14.70;99.90;;;;;;5084948;28;19917;-76
2021/09/04 01:48:45;;;;;;;;;;;14.70;99.90;;;;;;5053264;28;19979;-75
2021/09/04 01:51:12;;;;;;;;;;;14.70;99.90;;;;;;5056634;28;19917;-74
2021/09/04 01:53:37;;;;;;;;;;;14.70;99.90;;;;;;5037365;28;20277;-75
2021/09/04 01:56:03;;;;;;;;;;;14.70;99.90;;;;;;5055700;28;19917;-75
2021/09/04 01:58:28;;;;;;;;;;;14.70;99.90;;;;;;5052919;28;19917;-75
2021/09/04 02:00:54;;;;;;;;;;;14.70;99.90;;;;;;5055978;28;19968;-76
2021/09/04 02:03:20;;;;;;;;;;;14.70;99.90;;;;;;5053610;28;19965;-75
2021/09/04 02:05:45;;;;;;;;;;;14.70;99.90;;;;;;5061416;28;20525;-75
2021/09/04 02:08:11;;;;;;;;;;;14.70;99.90;;;;;;5067553;28;19916;-75
2021/09/04 02:10:37;;;;;;;;;;;14.70;99.90;;;;;;5057940;28;19966;-75
2021/09/04 02:13:02;;;;;;;;;;;14.70;99.90;;;;;;5053487;28;19916;-75
2021/09/04 02:15:28;;;;;;;;;;;14.70;99.90;;;;;;5045990;28;19930;-75
2021/09/04 02:17:54;;;;;;;;;;;14.70;99.90;;;;;;5065577;28;19920;-75
2021/09/04 02:20:19;;;;;;;;;;;14.60;99.90;;;;;;5067380;28;19925;-75
2021/09/04 02:22:45;;;;;;;;;;;14.60;99.90;;;;;;5063246;28;19928;-76
2021/09/04 02:25:11;;;;;;;;;;;14.70;99.90;;;;;;5059311;28;19924;-76
2021/09/04 02:27:37;;;;;;;;;;;14.60;99.90;;;;;;5083631;28;19924;-75
2021/09/04 02:30:06;;;;;;;;;;;14.60;99.90;;;;;;5051155;28;20265;-75
2021/09/04 02:32:32;;;;;;;;;;;14.70;99.90;;;;;;5059743;28;19967;-75
2021/09/04 02:34:58;;;;;;;;;;;14.60;99.90;;;;;;5076799;28;19917;-74
2021/09/04 02:37:24;;;;;;;;;;;14.60;99.90;;;;;;5058049;28;19924;-75
2021/09/04 02:39:50;;;;;;;;;;;14.60;99.90;;;;;;5051002;28;19923;-74
2021/09/04 02:42:15;;;;;;;;;;;14.60;99.90;;;;;;5060360;28;19920;-75
2021/09/04 02:44:41;;;;;;;;;;;14.60;99.90;;;;;;5061657;28;19917;-74
2021/09/04 02:47:07;;;;;;;;;;;14.40;99.90;;;;;;5057629;28;19928;-75
2021/09/04 02:49:32;;;;;;;;;;;14.60;99.90;;;;;;5057280;28;20406;-75
2021/09/04 02:51:58;;;;;;;;;;;14.60;99.90;;;;;;5066907;28;19917;-76
2021/09/04 02:54:23;;;;;;;;;;;14.60;99.90;;;;;;5084018;28;20374;-74
2021/09/04 02:56:49;;;;;;;;;;;14.60;99.90;;;;;;5059076;28;20007;-75
2021/09/04 02:59:14;;;;;;;;;;;14.50;99.90;;;;;;5057586;28;19920;-75
2021/09/04 03:01:40;;;;;;;;;;;14.50;99.90;;;;;;5066877;28;19927;-75
2021/09/04 03:04:06;;;;;;;;;;;14.50;99.90;;;;;;5052207;28;19920;-75
2021/09/04 03:06:31;;;;;;;;;;;14.50;99.90;;;;;;5055303;28;20003;-74
2021/09/04 03:08:57;;;;;;;;;;;14.50;99.90;;;;;;5055815;28;20258;-74
2021/09/04 03:11:22;;;;;;;;;;;14.50;99.90;;;;;;5068324;28;19963;-75
2021/09/04 03:13:49;;;;;;;;;;;14.50;99.90;;;;;;5073977;28;20371;-76
2021/09/04 03:16:14;;;;;;;;;;;14.50;99.90;;;;;;5016059;28;19928;-75
2021/09/04 03:18:40;;;;;;;;;;;14.60;99.90;;;;;;5067990;28;19966;-74
2021/09/04 03:21:05;;;;;;;;;;;14.60;99.90;;;;;;5054768;28;20332;-75
2021/09/04 03:23:31;;;;;;;;;;;14.50;99.90;;;;;;5057102;28;19933;-74
2021/09/04 03:25:56;;;;;;;;;;;14.50;99.90;;;;;;5057177;28;19924;-75
2021/09/04 03:28:22;;;;;;;;;;;14.50;99.90;;;;;;5059709;28;19916;-75
2021/09/04 03:30:48;;;;;;;;;;;14.50;99.90;;;;;;5057212;28;19923;-76
2021/09/04 03:33:13;;;;;;;;;;;14.60;99.90;;;;;;5071115;28;20352;-74
2021/09/04 03:35:39;;;;;;;;;;;14.50;99.90;;;;;;5071859;28;19916;-75
2021/09/04 03:38:04;;;;;;;;;;;14.50;99.90;;;;;;5072165;28;19920;-75
2021/09/04 03:40:30;;;;;;;;;;;14.50;99.90;;;;;;5104773;28;19966;-76
2021/09/04 03:42:55;;;;;;;;;;;14.50;99.90;;;;;;5072160;28;19924;-75
2021/09/04 03:45:21;;;;;;;;;;;14.50;99.90;;;;;;5088016;28;19916;-75
2021/09/04 03:47:47;;;;;;;;;;;14.50;99.90;;;;;;5071966;28;19920;-76
2021/09/04 03:50:12;;;;;;;;;;;14.50;99.90;;;;;;5071228;28;19924;-76
2021/09/04 03:52:38;;;;;;;;;;;14.50;99.90;;;;;;5072991;28;20395;-75
2021/09/04 03:55:04;;;;;;;;;;;14.40;99.90;;;;;;5058858;28;19969;-74
2021/09/04 03:57:30;;;;;;;;;;;14.40;99.90;;;;;;5059364;28;19924;-74
2021/09/04 03:59:55;;;;;;;;;;;14.50;99.90;;;;;;5071478;28;19971;-75
2021/09/04 04:02:21;;;;;;;;;;;14.40;99.90;;;;;;5070724;28;20365;-75
2021/09/04 04:04:46;;;;;;;;;;;14.40;99.90;;;;;;5060697;28;20368;-75
2021/09/04 04:07:12;;;;;;;;;;;14.40;99.90;;;;;;5062130;28;19928;-74
2021/09/04 04:09:38;;;;;;;;;;;14.40;99.90;;;;;;5065403;28;19916;-75
2021/09/04 04:12:04;;;;;;;;;;;14.40;99.90;;;;;;5061998;28;20388;-76
2021/09/04 04:14:29;;;;;;;;;;;14.40;99.90;;;;;;5067615;28;19974;-75
2021/09/04 04:16:55;;;;;;;;;;;14.40;99.90;;;;;;5085771;28;19917;-75
2021/09/04 04:19:20;;;;;;;;;;;14.40;99.90;;;;;;5060931;28;19916;-75
2021/09/04 04:21:46;;;;;;;;;;;14.40;99.90;;;;;;5062481;28;20008;-75
2021/09/04 04:24:11;;;;;;;;;;;14.40;99.90;;;;;;5068742;28;19991;-75
2021/09/04 04:26:37;;;;;;;;;;;14.40;99.90;;;;;;5071538;28;19962;-75
2021/09/04 04:29:03;;;;;;;;;;;14.40;99.90;;;;;;5065056;28;20365;-75
2021/09/04 04:31:28;;;;;;;;;;;14.40;99.90;;;;;;5063152;28;19931;-75
2021/09/04 04:33:54;;;;;;;;;;;14.40;99.90;;;;;;5089165;28;19928;-77
2021/09/04 04:36:19;;;;;;;;;;;14.40;99.90;;;;;;5061029;28;19916;-75
2021/09/04 04:38:45;;;;;;;;;;;14.40;99.90;;;;;;5060052;28;19925;-75
2021/09/04 04:41:10;;;;;;;;;;;14.40;99.90;;;;;;5055015;28;19924;-75
2021/09/04 04:43:36;;;;;;;;;;;14.40;99.90;;;;;;5064101;28;19920;-75
2021/09/04 04:46:02;;;;;;;;;;;14.40;99.90;;;;;;5069705;28;19917;-75
2021/09/04 04:48:27;;;;;;;;;;;14.40;99.90;;;;;;5063322;28;19917;-74
2021/09/04 04:50:53;;;;;;;;;;;14.40;99.90;;;;;;5059599;28;19943;-75
2021/09/04 04:53:18;;;;;;;;;;;14.40;99.90;;;;;;5063474;28;19923;-75
2021/09/04 04:55:44;;;;;;;;;;;14.40;99.90;;;;;;5059020;28;19932;-74
2021/09/04 04:58:09;;;;;;;;;;;14.40;99.90;;;;;;5060171;28;19916;-75
2021/09/04 05:00:35;;;;;;;;;;;14.40;99.90;;;;;;5059485;28;19916;-76
2021/09/04 05:03:03;;;;;;;;;;;14.40;99.90;;;;;;5062397;28;19927;-76
2021/09/04 05:05:28;;;;;;;;;;;14.40;99.90;;;;;;5055573;28;19963;-75
2021/09/04 05:07:54;;;;;;;;;;;14.50;99.90;;;;;;5047938;28;19920;-75
2021/09/04 05:10:19;;;;;;;;;;;14.50;99.90;;;;;;5070806;28;19916;-76
2021/09/04 05:12:45;;;;;;;;;;;14.50;99.90;;;;;;5084956;28;20331;-75
2021/09/04 05:15:11;;;;;;;;;;;14.50;99.90;;;;;;5086065;28;19917;-75
2021/09/04 05:17:36;;;;;;;;;;;14.50;99.90;;;;;;5092625;28;19956;-75
2021/09/04 05:20:02;;;;;;;;;;;14.50;99.90;;;;;;5103087;28;19916;-75
2021/09/04 05:22:28;;;;;;;;;;;14.50;99.90;;;;;;5058050;28;19921;-75
2021/09/04 05:24:54;;;;;;;;;;;14.50;99.90;;;;;;5061603;28;19965;-76
2021/09/04 05:27:19;;;;;;;;;;;14.60;99.90;;;;;;5052043;28;19917;-75
2021/09/04 05:29:45;;;;;;;;;;;14.60;99.90;;;;;;5058547;28;19920;-76
2021/09/04 05:32:10;;;;;;;;;;;14.60;99.90;;;;;;5068164;28;19938;-75
2021/09/04 05:34:36;;;;;;;;;;;14.60;99.90;;;;;;5070649;28;20372;-76
2021/09/04 05:37:01;;;;;;;;;;;14.60;99.90;;;;;;5069154;28;19927;-75
2021/09/04 05:39:27;;;;;;;;;;;14.60;99.90;;;;;;5070755;28;19920;-75
2021/09/04 05:41:53;;;;;;;;;;;14.70;99.90;;;;;;5069744;28;19926;-76
2021/09/04 05:44:18;;;;;;;;;;;14.70;99.90;;;;;;5070699;28;19920;-74
2021/09/04 05:46:44;;;;;;;;;;;14.70;99.90;;;;;;5069805;28;20270;-76
2021/09/04 05:49:09;;;;;;;;;;;14.80;99.90;;;;;;5069170;28;19924;-76
2021/09/04 05:51:35;;;;;;;;;;;14.70;99.90;;;;;;5072928;28;20284;-76
2021/09/04 05:54:00;;;;;;;;;;;14.80;99.90;;;;;;5077600;28;19938;-76
2021/09/04 05:56:26;;;;;;;;;;;14.80;99.90;;;;;;5073150;28;19925;-75
2021/09/04 05:58:52;;;;;;;;;;;14.80;99.90;;;;;;5071061;28;20572;-75
2021/09/04 06:01:17;;;;;;;;;;;14.80;99.90;;;;;;5058120;28;19921;-76
2021/09/04 06:03:43;;;;;;;;;;;14.90;99.90;;;;;;5067832;28;20473;-75
2021/09/04 06:06:08;;;;;;;;;;;14.90;99.90;;;;;;5051397;28;19917;-74
2021/09/04 06:08:34;;;;;;;;;;;15.00;99.90;;;;;;5051552;28;19948;-75
2021/09/04 06:11:00;;;;;;;;;;;15.10;99.90;;;;;;5067403;28;20369;-75
2021/09/04 06:13:25;;;;;;;;;;;15.10;99.90;;;;;;5067730;28;20009;-75
2021/09/04 06:15:51;;;;;;;;;;;15.10;99.90;;;;;;5088691;28;20440;-76
2021/09/04 06:18:16;;;;;;;;;;;15.20;99.90;;;;;;5055413;28;20320;-75
2021/09/04 06:20:42;;;;;;;;;;;15.20;99.90;;;;;;5062260;28;19916;-75
2021/09/04 06:23:07;;;;;;;;;;;15.30;99.90;;;;;;5076997;28;20009;-76
2021/09/04 06:25:34;;;;;;;;;;;15.40;99.90;;;;;;5062415;28;19916;-76
2021/09/04 06:28:00;;;;;;;;;;;15.40;99.90;;;;;;5057550;28;19917;-77
2021/09/04 06:30:25;;;;;;;;;;;15.50;99.90;;;;;;5066604;28;20426;-76
2021/09/04 06:32:51;;;;;;;;;;;15.50;99.90;;;;;;5055844;28;19999;-76
2021/09/04 06:35:16;;;;;;;;;;;15.60;99.90;;;;;;5063721;28;20426;-75
2021/09/04 06:37:42;;;;;;;;;;;15.60;99.90;;;;;;5083394;28;19920;-76
2021/09/04 06:40:07;;;;;;;;;;;15.70;99.90;;;;;;5062002;28;19916;-75
2021/09/04 06:42:33;;;;;;;;;;;15.70;99.90;;;;;;5095041;28;19975;-76
2021/09/04 06:44:59;;;;;;;;;;;15.70;99.90;;;;;;5057891;28;19978;-75
2021/09/04 06:47:24;;;;;;;;;;;15.80;99.90;;;;;;5056603;28;19928;-75
2021/09/04 06:49:50;;;;;;;;;;;15.90;99.90;;;;;;5063488;28;19916;-77
2021/09/04 06:52:15;;;;;;;;;;;15.90;99.90;;;;;;5059483;28;20385;-77
2021/09/04 06:54:41;;;;;;;;;;;16.00;99.90;;;;;;5063297;28;19924;-75
2021/09/04 06:57:06;;;;;;;;;;;16.10;99.90;;;;;;5078317;28;20396;-76
2021/09/04 06:59:32;;;;;;;;;;;16.10;99.90;;;;;;5062917;28;19920;-75
2021/09/04 07:01:58;;;;;;;;;;;16.20;99.90;;;;;;5054730;28;19925;-75
2021/09/04 07:04:23;;;;;;;;;;;16.20;99.90;;;;;;5064393;28;19925;-76
2021/09/04 07:06:49;;;;;;;;;;;16.20;99.90;;;;;;5060273;28;19920;-75
2021/09/04 07:09:14;;;;;;;;;;;16.20;99.90;;;;;;5070854;28;19967;-76
2021/09/04 07:11:40;;;;;;;;;;;16.30;99.90;;;;;;5064750;28;20383;-77
2021/09/04 07:14:05;;;;;;;;;;;16.30;99.90;;;;;;5048210;28;19975;-75
2021/09/04 07:16:31;;;;;;;;;;;16.30;99.90;;;;;;5062212;28;20067;-76
2021/09/04 07:18:57;;;;;;;;;;;16.30;99.90;;;;;;5058447;28;19923;-76
2021/09/04 07:21:22;;;;;;;;;;;16.30;99.90;;;;;;5058944;28;19917;-75
2021/09/04 07:23:48;;;;;;;;;;;16.40;99.90;;;;;;5072374;28;19921;-75
2021/09/04 07:26:13;;;;;;;;;;;16.50;99.90;;;;;;5067751;28;19928;-77
2021/09/04 07:28:39;;;;;;;;;;;16.60;99.90;;;;;;5082128;28;20274;-75
2021/09/04 07:31:04;;;;;;;;;;;16.70;99.90;;;;;;5062320;28;19970;-76
2021/09/04 07:33:30;;;;;;;;;;;16.80;99.90;;;;;;5058821;28;20021;-76
2021/09/04 07:35:56;;;;;;;;;;;16.80;99.90;;;;;;5099825;28;19916;-75
2021/09/04 07:38:23;;;;;;;;;;;16.80;99.90;;;;;;5063948;28;20023;-76
2021/09/04 07:40:49;;;;;;;;;;;16.90;99.90;;;;;;5069705;28;19920;-75
2021/09/04 07:43:15;;;;;;;;;;;17.00;99.90;;;;;;5083142;28;20015;-75
2021/09/04 07:45:41;;;;;;;;;;;17.10;99.90;;;;;;5061889;28;19978;-76
2021/09/04 07:48:06;;;;;;;;;;;17.10;99.90;;;;;;5064657;28;19924;-76
2021/09/04 07:50:33;;;;;;;;;;;17.20;99.90;;;;;;5070040;28;19999;-74
2021/09/04 07:52:59;;;;;;;;;;;17.20;99.90;;;;;;5099545;28;20236;-75
2021/09/04 07:55:24;;;;;;;;;;;17.40;99.90;;;;;;5098570;28;19928;-75
2021/09/04 07:57:50;;;;;;;;;;;17.40;99.90;;;;;;5047935;28;19917;-77
2021/09/04 08:00:16;;;;;;;;;;;17.40;99.90;;;;;;5065591;28;19917;-77
2021/09/04 08:02:41;;;;;;;;;;;17.50;99.90;;;;;;5053489;28;20385;-76
2021/09/04 08:05:08;;;;;;;;;;;17.70;99.90;;;;;;5098844;28;20009;-75
2021/09/04 08:07:33;;;;;;;;;;;17.80;99.90;;;;;;5056274;28;19936;-76
2021/09/04 08:09:59;;;;;;;;;;;18.00;99.90;;;;;;5054454;28;19920;-76
2021/09/04 08:12:25;;;;;;;;;;;18.10;99.90;;;;;;5056085;28;19921;-75
2021/09/04 08:14:50;;;;;;;;;;;18.10;99.90;;;;;;5087221;28;20007;-76
2021/09/04 08:17:16;;;;;;;;;;;18.10;99.90;;;;;;5064095;28;20344;-77
2021/09/04 08:19:42;;;;;;;;;;;18.10;99.90;;;;;;5058806;28;19917;-77
2021/09/04 08:22:07;;;;;;;;;;;18.20;99.90;;;;;;5055737;28;19991;-75
2021/09/04 08:24:33;;;;;;;;;;;18.20;99.90;;;;;;5086036;28;20312;-76
2021/09/04 08:26:59;;;;;;;;;;;18.20;99.90;;;;;;5054763;28;20007;-76
2021/09/04 08:29:24;;;;;;;;;;;18.20;99.90;;;;;;5086130;28;19920;-76
2021/09/04 08:31:50;;;;;;;;;;;18.10;99.90;;;;;;5056622;28;19978;-76
2021/09/04 08:34:16;;;;;;;;;;;18.10;99.90;;;;;;5079191;28;19924;-75
2021/09/04 08:36:41;;;;;;;;;;;18.10;99.90;;;;;;5066527;28;19920;-74
2021/09/04 08:39:07;;;;;;;;;;;18.10;99.90;;;;;;5061007;28;20326;-74
2021/09/04 08:41:35;;;;;;;;;;;18.10;99.90;;;;;;5068832;28;20368;-75
2021/09/04 08:44:00;;;;;;;;;;;18.30;99.90;;;;;;5059391;28;19917;-75
2021/09/04 08:46:33;;;;;;;;;;;18.30;99.90;;;;;;5064634;28;19924;-74
2021/09/04 08:49:00;;;;;;;;;;;18.40;99.90;;;;;;5061218;28;19923;-74
2021/09/04 08:51:25;;;;;;;;;;;18.50;99.90;;;;;;5058569;28;19917;-75
2021/09/04 08:53:51;;;;;;;;;;;18.60;99.90;;;;;;5060267;28;20397;-75
2021/09/04 08:56:16;;;;;;;;;;;18.70;99.90;;;;;;5062477;28;19955;-74
2021/09/04 08:58:42;;;;;;;;;;;18.80;99.90;;;;;;5057563;28;19916;-75
2021/09/04 09:01:18;;;;;;;;;;;18.80;99.90;;;;;;5063288;28;19916;-75
2021/09/04 09:03:44;;;;;;;;;;;19.00;99.90;;;;;;5057432;28;20309;-76
2021/09/04 09:06:24;;;;;;;;;;;19.30;99.90;;;;;;5057787;28;19920;-75
2021/09/04 09:08:50;;;;;;;;;;;19.50;99.90;;;;;;5071440;28;20290;-76
2021/09/04 09:11:15;;;;;;;;;;;19.70;99.90;;;;;;5059032;28;19917;-76
2021/09/04 09:13:45;;;;;;;;;;;19.70;99.90;;;;;;5059117;28;20372;-75
2021/09/04 09:16:14;;;;;;;;;;;19.80;99.90;;;;;;5062556;28;19921;-77
2021/09/04 09:18:40;;;;;;;;;;;20.00;99.90;;;;;;5054240;28;20289;-76
2021/09/04 09:21:06;;;;;;;;;;;20.10;99.90;;;;;;5055282;28;19995;-76
2021/09/04 09:23:32;;;;;;;;;;;20.20;99.90;;;;;;5087509;28;20007;-77
2021/09/04 09:26:07;;;;;;;;;;;20.40;99.90;;;;;;5059877;28;19916;-76
2021/09/04 09:28:33;;;;;;;;;;;20.40;99.90;;;;;;5059937;28;19924;-76
2021/09/04 09:31:00;;;;;;;;;;;20.20;99.90;;;;;;5076818;28;19924;-76
2021/09/04 09:33:27;;;;;;;;;;;20.10;99.90;;;;;;5083843;28;19920;-76
2021/09/04 09:35:54;;;;;;;;;;;20.00;99.90;;;;;;5061240;28;19986;-76
2021/09/04 09:38:21;;;;;;;;;;;19.90;99.90;;;;;;5069470;28;19927;-76
2021/09/04 09:40:46;;;;;;;;;;;20.00;99.90;;;;;;5067020;28;19966;-76
2021/09/04 09:43:14;;;;;;;;;;;20.00;99.90;;;;;;5067669;28;19921;-74
2021/09/04 09:45:44;;;;;;;;;;;19.90;99.90;;;;;;5060320;28;20401;-75
2021/09/04 09:48:09;;;;;;;;;;;20.00;99.90;;;;;;5059573;28;19916;-75
2021/09/04 09:50:35;;;;;;;;;;;20.10;99.90;;;;;;5060310;28;20438;-74
2021/09/04 09:53:01;;;;;;;;;;;20.10;99.90;;;;;;5085032;28;19999;-75
2021/09/04 09:55:27;;;;;;;;;;;20.00;99.90;;;;;;5061337;28;19916;-77
2021/09/04 09:57:54;;;;;;;;;;;19.80;99.90;;;;;;5079246;28;19917;-75
2021/09/04 10:00:20;;;;;;;;;;;19.80;99.90;;;;;;5058383;28;19924;-75
2021/09/04 10:02:46;;;;;;;;;;;19.50;99.90;;;;;;5062900;28;19924;-75
2021/09/04 10:05:12;;;;;;;;;;;19.50;99.90;;;;;;5063702;28;19916;-74
2021/09/04 10:07:38;;;;;;;;;;;19.70;99.90;;;;;;5078955;28;20389;-76
2021/09/04 10:10:04;;;;;;;;;;;19.80;99.90;;;;;;5085068;28;19924;-76
2021/09/04 10:12:30;;;;;;;;;;;19.80;99.90;;;;;;5087032;28;19924;-75
2021/09/04 10:14:55;;;;;;;;;;;19.80;99.90;;;;;;5065218;28;19999;-76
2021/09/04 10:17:21;;;;;;;;;;;19.90;99.90;;;;;;5067276;28;20045;-76
2021/09/04 10:19:49;;;;;;;;;;;19.90;99.90;;;;;;5065267;28;19931;-75
2021/09/04 10:22:15;;;;;;;;;;;19.80;99.90;;;;;;5069751;28;19931;-75
2021/09/04 10:24:54;;;;;;;;;;;19.60;99.90;;;;;;5064160;28;19921;-75
2021/09/04 10:27:31;;;;;;;;;;;19.70;99.90;;;;;;5059234;28;19916;-76
2021/09/04 10:29:57;;;;;;;;;;;19.70;99.90;;;;;;5061395;28;19931;-75
2021/09/04 10:32:22;;;;;;;;;;;19.90;99.90;;;;;;5056204;28;19921;-74
2021/09/04 10:35:02;;;;;;;;;;;19.90;99.90;;;;;;5060950;28;19924;-76
2021/09/04 10:37:27;;;;;;;;;;;20.00;99.90;;;;;;5083991;28;19921;-76
2021/09/04 10:39:53;;;;;;;;;;;20.10;99.90;;;;;;5067602;28;19923;-75
2021/09/04 10:42:21;;;;;;;;;;;20.30;99.90;;;;;;5050512;28;20444;-75
2021/09/04 10:44:48;;;;;;;;;;;20.40;99.90;;;;;;5050893;28;19921;-76
2021/09/04 10:47:14;;;;;;;;;;;20.50;99.90;;;;;;5082952;28;19924;-73
2021/09/04 10:49:41;;;;;;;;;;;20.50;99.90;;;;;;5050650;28;19924;-76
2021/09/04 10:52:06;;;;;;;;;;;20.40;99.90;;;;;;5051018;28;19948;-75
2021/09/04 10:54:41;;;;;;;;;;;20.30;99.90;;;;;;5050174;28;19952;-76
2021/09/04 10:57:13;;;;;;;;;;;20.00;99.90;;;;;;5066892;28;19971;-75
2021/09/04 10:59:57;;;;;;;;;;;19.70;99.90;;;;;;5071474;28;19924;-75
2021/09/04 11:02:37;;;;;;;;;;;19.70;99.90;;;;;;5048817;28;19920;-75
2021/09/04 11:05:22;;;;;;;;;;;19.80;99.90;;;;;;5084204;28;20003;-76
2021/09/04 11:07:48;;;;;;;;;;;20.10;99.90;;;;;;5039654;28;19923;-75
2021/09/04 11:10:23;;;;;;;;;;;20.20;99.90;;;;;;5052143;28;19920;-74
2021/09/04 11:13:05;;;;;;;;;;;20.50;99.90;;;;;;5067319;28;19981;-75
2021/09/04 11:15:31;;;;;;;;;;;20.50;99.90;;;;;;5088263;28;19917;-75
2021/09/04 11:17:57;;;;;;;;;;;20.80;99.90;;;;;;5090570;28;20311;-75
2021/09/04 11:20:23;;;;;;;;;;;20.70;99.90;;;;;;5051639;28;20000;-74
2021/09/04 11:22:49;;;;;;;;;;;20.50;99.90;;;;;;5083649;28;19927;-74
2021/09/04 11:25:15;;;;;;;;;;;20.20;99.90;;;;;;5085230;28;19928;-74
2021/09/04 11:27:44;;;;;;;;;;;20.00;99.90;;;;;;5065216;28;19917;-76
2021/09/04 11:30:09;;;;;;;;;;;20.00;99.90;;;;;;5054572;28;20354;-75
2021/09/04 11:32:36;;;;;;;;;;;20.20;99.90;;;;;;5064029;28;19923;-74
2021/09/04 11:35:03;;;;;;;;;;;20.20;99.90;;;;;;5076876;28;19923;-75
2021/09/04 11:37:32;;;;;;;;;;;20.10;99.90;;;;;;5082827;28;19927;-75
2021/09/04 11:40:00;;;;;;;;;;;20.00;99.90;;;;;;5059710;28;20259;-75
2021/09/04 11:42:28;;;;;;;;;;;19.90;99.90;;;;;;5056495;28;19924;-76
2021/09/04 11:45:05;;;;;;;;;;;19.90;99.90;;;;;;5058445;28;19956;-75
2021/09/04 11:47:31;;;;;;;;;;;19.90;99.90;;;;;;5055712;28;19921;-75
2021/09/04 11:50:01;;;;;;;;;;;19.80;99.90;;;;;;5057016;28;19917;-74
2021/09/04 11:52:28;;;;;;;;;;;19.90;99.90;;;;;;5057507;28;20407;-76
2021/09/04 11:55:12;;;;;;;;;;;20.00;99.90;;;;;;5059272;28;20050;-76
2021/09/04 11:57:42;;;;;;;;;;;20.00;99.90;;;;;;5048779;28;19924;-75
2021/09/04 12:00:09;;;;;;;;;;;20.20;99.90;;;;;;5061181;28;19925;-75
2021/09/04 12:02:35;;;;;;;;;;;20.50;99.90;;;;;;5085397;28;19931;-76
2021/09/04 12:05:05;;;;;;;;;;;20.90;99.90;;;;;;5060415;28;20013;-76
2021/09/04 12:07:32;;;;;;;;;;;21.20;99.90;;;;;;5057362;28;19917;-74
2021/09/04 12:09:58;;;;;;;;;;;21.50;99.90;;;;;;5069731;28;19920;-74
2021/09/04 12:12:25;;;;;;;;;;;21.60;99.90;;;;;;5056822;28;19923;-74
2021/09/04 12:14:51;;;;;;;;;;;;;;;;;;5064612;28;19955;-77
2021/09/04 12:17:17;;;;;;;;;;;21.60;99.90;;;;;;5047498;28;19916;-77
2021/09/04 12:19:43;;;;;;;;;;;21.30;99.90;;;;;;5066229;28;19916;-76
2021/09/04 12:22:08;;;;;;;;;;;21.20;99.90;;;;;;5064837;28;19990;-76
2021/09/04 12:24:34;;;;;;;;;;;21.20;99.90;;;;;;5084404;28;19966;-78
2021/09/04 12:26:59;;;;;;;;;;;21.20;99.90;;;;;;5069176;28;19924;-76
2021/09/04 12:29:29;;;;;;;;;;;21.30;99.90;;;;;;5051180;28;19921;-77
2021/09/04 12:32:06;;;;;;;;;;;21.60;99.90;;;;;;5064295;28;19995;-76
2021/09/04 12:34:32;;;;;;;;;;;;;;;;;;5084979;28;19956;-74
2021/09/04 12:36:57;;;;;;;;;;;22.00;99.90;;;;;;5065902;28;20568;-74
2021/09/04 12:39:25;;;;;;;;;;;21.80;96.60;;;;;;5070659;28;19932;-76
2021/09/04 12:42:10;;;;;;;;;;;21.80;99.90;;;;;;5088191;28;20270;-75
2021/09/04 12:44:35;;;;;;;;;;;22.00;99.90;;;;;;5058977;28;19921;-76
2021/09/04 12:47:02;;;;;;;;;;;22.10;99.90;;;;;;5073188;28;19927;-75
2021/09/04 12:49:38;;;;;;;;;;;22.00;98.40;;;;;;5073699;28;19927;-75
2021/09/04 12:52:08;;;;;;;;;;;21.90;99.90;;;;;;5060726;28;19917;-75
2021/09/04 12:54:35;;;;;;;;;;;22.00;99.90;;;;;;5080010;28;20033;-75
2021/09/04 12:57:08;;;;;;;;;;;22.10;99.10;;;;;;5039691;28;19959;-75
2021/09/04 12:59:50;;;;;;;;;;;22.20;99.90;;;;;;5087095;28;19916;-74
2021/09/04 13:02:17;;;;;;;;;;;22.10;99.90;;;;;;5067232;28;19935;-76
2021/09/04 13:04:43;;;;;;;;;;;22.20;95.60;;;;;;5052910;28;19923;-74
2021/09/04 13:07:09;;;;;;;;;;;21.90;99.90;;;;;;5067478;28;19921;-75
2021/09/04 13:09:35;;;;;;;;;;;21.50;99.90;;;;;;5088731;28;19923;-76
2021/09/04 13:12:00;;;;;;;;;;;21.30;99.90;;;;;;5063995;28;19917;-75
2021/09/04 13:14:26;;;;;;;;;;;21.20;99.90;;;;;;5070668;28;19916;-76
2021/09/04 13:16:53;;;;;;;;;;;21.40;99.90;;;;;;5066717;28;20410;-76
2021/09/04 13:19:18;;;;;;;;;;;21.50;98.30;;;;;;5072863;28;20254;-76
2021/09/04 13:21:45;;;;;;;;;;;21.80;99.60;;;;;;5065989;28;19928;-75
2021/09/04 13:24:11;;;;;;;;;;;22.00;99.90;;;;;;5067055;28;20384;-74
2021/09/04 13:26:37;;;;;;;;;;;22.20;97.40;;;;;;5065426;28;20037;-75
2021/09/04 13:29:02;;;;;;;;;;;22.40;99.90;;;;;;5080901;28;20305;-75
2021/09/04 13:31:28;;;;;;;;;;;22.40;99.90;;;;;;5063582;28;19927;-75
2021/09/04 13:33:53;;;;;;;;;;;22.50;99.90;;;;;;5067140;28;19920;-75
2021/09/04 13:36:19;;;;;;;;;;;22.80;99.90;;;;;;5064609;28;19916;-75
2021/09/04 13:38:44;;;;;;;;;;;23.40;98.10;;;;;;5054275;28;19959;-75
2021/09/04 13:41:13;;;;;;;;;;;24.10;99.20;;;;;;5054115;28;20011;-75
2021/09/04 13:43:38;;;;;;;;;;;24.60;99.90;;;;;;5054768;28;19964;-75
2021/09/04 13:46:04;;;;;;;;;;;24.60;99.90;;;;;;5053529;28;19974;-75
2021/09/04 13:48:30;;;;;;;;;;;24.20;90.80;;;;;;5069292;28;19924;-74
2021/09/04 13:50:55;;;;;;;;;;;24.10;92.90;;;;;;5046372;28;20290;-75
2021/09/04 13:53:21;;;;;;;;;;;24.10;98.60;;;;;;5056350;28;19916;-75
2021/09/04 13:55:47;;;;;;;;;;;24.30;98.00;;;;;;5053178;28;19916;-74
2021/09/04 13:58:13;;;;;;;;;;;24.20;99.90;;;;;;5054967;28;19916;-75
2021/09/04 14:00:40;;;;;;;;;;;24.60;91.00;;;;;;5052926;28;19986;-75
2021/09/04 14:03:06;;;;;;;;;;;24.90;87.60;;;;;;5075869;28;19925;-74
2021/09/04 14:05:31;;;;;;;;;;;25.30;94.70;;;;;;5082844;28;19916;-75
2021/09/04 14:07:57;;;;;;;;;;;25.70;85.00;;;;;;5054566;28;20322;-74
2021/09/04 14:10:23;;;;;;;;;;;26.10;78.20;;;;;;5054379;28;19923;-74
2021/09/04 14:12:48;;;;;;;;;;;26.30;78.30;;;;;;5066277;28;20408;-73
2021/09/04 14:15:14;;;;;;;;;;;26.60;79.50;;;;;;5059947;28;20277;-74